Time;durP1;ratioP1;P1;durP2;ratioP2;P2;SDS_P1;SDS_P2;PMS_P1;PMS_P2;Temp;Humidity;BMP_temperature;BMP_pressure;BME280_temperature;BME280_humidity;BME280_pressure;Samples;Min_cycle;Max_cycle;Signal;HPM_P1;HPM_P2
2023/06/15 00:01:32;;;;;;;4.15;2.80;;;;;;;12.01;100.00;101977.34;5002767;28;20177;-48
2023/06/15 00:03:58;;;;;;;2.47;2.28;;;;;;;12.17;100.00;101972.44;5007682;28;20643;-48
2023/06/15 00:06:24;;;;;;;2.92;2.63;;;;;;;12.02;100.00;101973.72;5005328;28;20193;-50
2023/06/15 00:08:50;;;;;;;2.95;2.70;;;;;;;12.09;100.00;101969.06;4999247;28;20239;-49
2023/06/15 00:11:15;;;;;;;2.95;2.40;;;;;;;12.04;100.00;101962.94;5002988;28;20311;-49
2023/06/15 00:13:41;;;;;;;4.75;2.47;;;;;;;12.00;100.00;101972.00;5006848;28;20196;-51
2023/06/15 00:16:06;;;;;;;3.58;2.70;;;;;;;12.07;100.00;101957.47;5001073;28;20223;-48
2023/06/15 00:18:32;;;;;;;5.95;2.50;;;;;;;11.75;100.00;101961.88;5006504;28;20199;-48
2023/06/15 00:20:57;;;;;;;3.00;2.50;;;;;;;11.93;100.00;101966.78;4998362;28;20282;-49
2023/06/15 00:23:26;;;;;;;3.00;2.70;;;;;;;11.87;100.00;101968.72;5004890;28;20185;-52
2023/06/15 00:25:53;;;;;;;2.60;2.40;;;;;;;11.81;100.00;101959.03;5003525;28;20184;-47
2023/06/15 00:28:56;;;;;;;2.83;2.60;;;;;;;11.82;100.00;101968.84;5000732;28;20719;-48
2023/06/15 00:31:22;;;;;;;2.70;2.50;;;;;;;11.98;100.00;101966.66;5008700;28;20538;-50
2023/06/15 00:33:47;;;;;;;3.08;2.75;;;;;;;11.84;100.00;101966.13;5007782;28;20271;-50
2023/06/15 00:36:13;;;;;;;3.10;2.15;;;;;;;12.04;100.00;101957.56;5000135;28;20176;-48
2023/06/15 00:38:39;;;;;;;2.72;2.53;;;;;;;12.11;100.00;101956.47;4998038;28;20200;-50
2023/06/15 00:41:04;;;;;;;4.10;2.33;;;;;;;12.16;100.00;101963.50;4997052;28;20223;-50
2023/06/15 00:43:30;;;;;;;2.50;2.28;;;;;;;12.09;100.00;101961.00;4997711;28;20177;-49
2023/06/15 00:45:57;;;;;;;4.88;2.60;;;;;;;12.09;100.00;101961.91;4991564;28;20192;-48
2023/06/15 00:48:23;;;;;;;3.15;2.35;;;;;;;12.09;100.00;101961.00;5001744;28;20275;-49
2023/06/15 00:50:49;;;;;;;3.13;2.30;;;;;;;12.16;100.00;101949.22;4996310;28;20232;-47
2023/06/15 00:53:15;;;;;;;2.90;2.70;;;;;;;12.10;100.00;101954.72;4996136;28;20180;-50
2023/06/15 00:55:41;;;;;;;4.18;2.65;;;;;;;11.72;100.00;101945.84;4999671;28;20722;-48
2023/06/15 00:58:07;;;;;;;2.60;2.38;;;;;;;11.62;100.00;101957.72;4994906;28;20235;-47
2023/06/15 01:00:33;;;;;;;2.88;2.53;;;;;;;11.32;100.00;101954.84;4999552;28;20177;-50
2023/06/15 01:03:04;;;;;;;4.60;2.97;;;;;;;11.24;100.00;101957.72;5003277;28;20238;-48
2023/06/15 01:05:34;;;;;;;7.20;3.15;;;;;;;11.19;100.00;101956.03;5004141;28;20283;-47
2023/06/15 01:08:05;;;;;;;5.10;3.00;;;;;;;11.23;100.00;101965.78;5000253;28;20588;-47
2023/06/15 01:10:32;;;;;;;4.03;2.95;;;;;;;11.29;100.00;101963.84;5003384;28;20186;-53
2023/06/15 01:13:00;;;;;;;3.47;2.90;;;;;;;11.23;100.00;101957.75;4998942;28;20679;-49
2023/06/15 01:15:26;;;;;;;3.05;2.80;;;;;;;11.24;100.00;101959.50;5001905;28;20655;-48
2023/06/15 01:17:56;;;;;;;7.18;3.20;;;;;;;11.24;100.00;101952.34;4996210;28;20272;-48
2023/06/15 01:20:38;;;;;;;3.00;2.70;;;;;;;11.31;100.00;101948.59;4994482;28;20819;-48
2023/06/15 01:23:31;;;;;;;2.80;2.58;;;;;;;11.48;100.00;101952.69;4996923;28;20180;-48
2023/06/15 01:26:11;;;;;;;3.05;2.72;;;;;;;11.46;100.00;101957.22;5002154;28;20188;-48
2023/06/15 01:28:46;;;;;;;2.67;2.45;;;;;;;11.40;100.00;101952.00;4996911;28;20297;-49
2023/06/15 01:31:12;;;;;;;4.05;2.80;;;;;;;11.43;100.00;101955.47;5000183;28;20663;-49
2023/06/15 01:33:45;;;;;;;3.92;2.60;;;;;;;11.48;100.00;101950.00;5007063;28;20199;-48
2023/06/15 01:36:11;;;;;;;3.08;2.55;;;;;;;11.60;100.00;101949.69;5000838;28;20196;-49
2023/06/15 01:38:37;;;;;;;3.47;2.95;;;;;;;11.63;100.00;101944.28;4996629;28;20189;-49
2023/06/15 01:41:03;;;;;;;5.78;2.80;;;;;;;11.58;100.00;101935.44;4989988;28;20196;-53
2023/06/15 01:43:32;;;;;;;2.67;2.47;;;;;;;11.63;100.00;101940.69;5002113;28;20184;-48
2023/06/15 01:45:58;;;;;;;3.17;2.70;;;;;;;11.58;100.00;101942.59;4997302;28;20181;-48
2023/06/15 01:48:25;;;;;;;2.95;2.35;;;;;;;11.66;100.00;101937.94;4993813;28;20719;-52
2023/06/15 01:50:51;;;;;;;2.88;2.50;;;;;;;11.64;100.00;101945.16;5001912;28;20730;-47
2023/06/15 01:53:17;;;;;;;3.00;2.80;;;;;;;11.49;100.00;101941.03;4997089;28;20183;-48
2023/06/15 01:55:43;;;;;;;3.03;2.78;;;;;;;11.57;100.00;101936.38;5009920;28;20239;-48
2023/06/15 02:01:56;;;;;;;4.20;2.70;;;;;;;11.55;100.00;101936.38;4998368;28;20228;-49
2023/06/15 02:04:22;;;;;;;2.25;2.08;;;;;;;11.55;100.00;101944.44;4996468;28;20188;-51
2023/06/15 02:06:48;;;;;;;3.03;2.80;;;;;;;11.30;100.00;101936.13;4993602;28;20683;-53
2023/06/15 02:09:15;;;;;;;2.83;2.63;;;;;;;11.19;100.00;101934.56;5000344;28;20199;-49
2023/06/15 02:11:42;;;;;;;3.45;3.15;;;;;;;11.25;100.00;101950.53;4999084;28;20185;-49
2023/06/15 02:14:09;;;;;;;3.00;2.70;;;;;;;11.34;100.00;101929.72;4994504;28;20211;-50
2023/06/15 02:16:35;;;;;;;2.20;2.10;;;;;;;11.36;100.00;101937.75;4999847;28;20300;-52
2023/06/15 02:19:03;;;;;;;4.55;2.75;;;;;;;11.36;100.00;101940.44;5004423;28;20551;-50
2023/06/15 02:21:29;;;;;;;3.50;3.20;;;;;;;11.13;100.00;101936.50;5004067;28;20181;-50
2023/06/15 02:23:55;;;;;;;6.85;2.70;;;;;;;11.04;100.00;101933.13;5006357;28;20193;-53
2023/06/15 02:26:21;;;;;;;2.95;2.60;;;;;;;11.06;100.00;101936.66;4998396;28;20216;-49
2023/06/15 02:28:47;;;;;;;4.00;2.88;;;;;;;11.06;100.00;101926.84;5003780;28;20214;-52
2023/06/15 02:31:12;;;;;;;4.25;2.60;;;;;;;10.97;100.00;101927.00;5003751;28;20571;-48
2023/06/15 02:33:38;;;;;;;3.38;2.58;;;;;;;11.11;100.00;101930.28;5009158;28;20184;-51
2023/06/15 02:36:06;;;;;;;4.78;3.17;;;;;;;10.95;100.00;101918.13;5009392;28;20709;-53
2023/06/15 02:38:31;;;;;;;3.30;3.00;;;;;;;10.80;100.00;101931.84;4988951;28;20202;-52
2023/06/15 02:40:57;;;;;;;3.65;3.13;;;;;;;10.80;100.00;101921.13;5004848;28;20191;-52
2023/06/15 02:43:22;;;;;;;3.00;2.75;;;;;;;10.86;100.00;101931.72;5008075;28;20185;-50
2023/06/15 02:45:49;;;;;;;3.60;2.90;;;;;;;10.89;100.00;101932.56;5007110;28;20189;-49
2023/06/15 02:48:15;;;;;;;3.60;3.10;;;;;;;10.99;100.00;101933.22;5005601;28;20697;-51
2023/06/15 02:50:42;;;;;;;3.60;3.30;;;;;;;10.96;100.00;101938.66;5004931;28;20582;-52
2023/06/15 02:53:16;;;;;;;4.50;3.38;;;;;;;10.93;100.00;101936.94;4998499;28;20187;-51
2023/06/15 02:55:43;;;;;;;4.35;3.30;;;;;;;10.92;100.00;101936.97;5008172;28;20196;-51
2023/06/15 02:58:13;;;;;;;3.40;3.10;;;;;;;10.84;100.00;101937.13;5002989;28;20208;-51
2023/06/15 03:01:00;;;;;;;4.32;3.33;;;;;;;10.83;100.00;101942.53;5007096;28;20211;-51
2023/06/15 03:03:40;;;;;;;7.03;3.13;;;;;;;10.76;100.00;101933.75;4995135;28;20282;-52
2023/06/15 03:06:08;;;;;;;3.30;2.90;;;;;;;10.86;100.00;101932.59;5008715;28;20522;-49
2023/06/15 03:08:35;;;;;;;3.00;2.80;;;;;;;10.94;100.00;101935.13;5010640;28;20248;-52
2023/06/15 03:11:16;;;;;;;3.60;3.30;;;;;;;10.99;100.00;101935.03;5012888;28;20674;-50
2023/06/15 03:13:41;;;;;;;4.43;3.20;;;;;;;10.91;100.00;101938.78;5008975;28;20181;-51
2023/06/15 03:16:09;;;;;;;4.38;3.53;;;;;;;11.00;100.00;101937.69;5006990;28;20192;-52
2023/06/15 03:18:35;;;;;;;3.97;3.58;;;;;;;11.03;100.00;101942.97;4998175;28;20193;-51
2023/06/15 03:21:01;;;;;;;4.80;3.13;;;;;;;11.13;100.00;101943.66;4997026;28;20185;-49
2023/06/15 03:23:27;;;;;;;5.07;3.40;;;;;;;11.13;100.00;101933.81;4989531;28;20188;-53
2023/06/15 03:25:53;;;;;;;3.35;3.05;;;;;;;11.00;100.00;101932.31;4999947;28;20189;-54
2023/06/15 03:28:23;;;;;;;3.45;3.15;;;;;;;11.10;100.00;101939.22;5003845;28;20358;-50
2023/06/15 03:30:56;;;;;;;4.45;3.28;;;;;;;11.08;100.00;101927.66;4996165;28;20640;-53
2023/06/15 03:33:24;;;;;;;4.55;3.30;;;;;;;11.04;100.00;101923.31;5007777;28;20184;-50
2023/06/15 03:35:53;;;;;;;3.38;3.08;;;;;;;11.08;100.00;101924.09;4998828;28;20195;-49
2023/06/15 03:38:19;;;;;;;4.25;3.58;;;;;;;11.11;100.00;101924.91;5003321;28;20279;-50
2023/06/15 03:40:46;;;;;;;4.07;3.60;;;;;;;11.22;100.00;101931.84;5003805;28;20248;-50
2023/06/15 03:43:13;;;;;;;3.65;3.35;;;;;;;11.24;100.00;101921.94;4995814;28;20180;-49
2023/06/15 03:45:40;;;;;;;4.57;3.55;;;;;;;11.27;100.00;101906.66;5003910;28;20191;-52
2023/06/15 03:48:06;;;;;;;4.90;3.45;;;;;;;11.27;100.00;101911.16;5006026;28;20295;-50
2023/06/15 03:50:33;;;;;;;5.07;2.88;;;;;;;11.14;100.00;101922.16;5007836;28;20189;-50
2023/06/15 03:53:01;;;;;;;3.88;3.35;;;;;;;11.29;100.00;101920.03;5004495;28;20723;-52
2023/06/15 03:55:27;;;;;;;4.15;3.25;;;;;;;11.39;100.00;101913.53;5011239;28;20650;-50
2023/06/15 03:57:53;;;;;;;3.42;3.13;;;;;;;11.45;100.00;101917.88;4993991;28;20293;-49
2023/06/15 04:00:20;;;;;;;3.88;3.33;;;;;;;11.52;100.00;101924.84;5002607;28;20268;-49
2023/06/15 04:02:47;;;;;;;2.85;2.65;;;;;;;11.53;100.00;101922.13;5005001;28;20566;-50
2023/06/15 04:05:13;;;;;;;3.80;3.33;;;;;;;11.57;100.00;101917.56;4998922;28;20255;-51
2023/06/15 04:07:39;;;;;;;3.78;3.22;;;;;;;11.68;100.00;101914.63;5006304;28;20233;-50
2023/06/15 04:10:08;;;;;;;3.50;3.20;;;;;;;11.78;100.00;101916.13;5006250;28;20192;-49
2023/06/15 04:12:33;;;;;;;3.78;3.05;;;;;;;11.82;100.00;101909.75;5002307;28;20223;-50
2023/06/15 04:14:59;;;;;;;5.35;3.65;;;;;;;11.85;100.00;101907.00;5005183;28;20560;-48
2023/06/15 04:17:25;;;;;;;4.55;3.30;;;;;;;11.83;100.00;101908.84;5005377;28;20224;-50
2023/06/15 04:19:50;;;;;;;4.97;3.20;;;;;;;11.79;100.00;101912.53;5007270;28;20220;-52
2023/06/15 04:22:16;;;;;;;5.22;3.50;;;;;;;11.89;100.00;101914.06;5007319;28;20201;-50
2023/06/15 04:24:42;;;;;;;5.10;3.47;;;;;;;11.97;100.00;101907.63;5005950;28;20208;-49
2023/06/15 04:27:12;;;;;;;4.00;3.35;;;;;;;12.02;100.00;101916.44;4999231;28;20279;-49
2023/06/15 04:29:45;;;;;;;4.10;3.67;;;;;;;12.04;100.00;101911.91;5001416;28;20172;-49
2023/06/15 04:32:12;;;;;;;3.70;3.40;;;;;;;12.04;100.00;101915.47;4995024;28;20189;-49
2023/06/15 04:34:39;;;;;;;4.22;3.40;;;;;;;12.14;100.00;101919.69;4997791;28;20652;-50
2023/06/15 04:37:06;;;;;;;5.40;3.70;;;;;;;12.21;100.00;101917.72;5000644;28;20213;-50
2023/06/15 04:39:34;;;;;;;3.60;3.30;;;;;;;12.32;100.00;101922.78;5005433;28;20269;-50
2023/06/15 04:42:03;;;;;;;4.57;3.60;;;;;;;12.29;100.00;101910.31;5001084;28;20189;-48
2023/06/15 04:44:30;;;;;;;4.55;3.60;;;;;;;12.35;100.00;101920.00;5007006;28;20336;-50
2023/06/15 04:46:56;;;;;;;9.07;4.20;;;;;;;12.45;100.00;101920.63;5006003;28;20284;-49
2023/06/15 04:49:22;;;;;;;5.93;3.85;;;;;;;12.46;100.00;101909.84;5001468;28;20186;-50
2023/06/15 04:51:48;;;;;;;3.65;3.35;;;;;;;12.57;100.00;101906.81;5002600;28;20176;-48
2023/06/15 04:54:14;;;;;;;4.40;4.00;;;;;;;12.68;100.00;101910.09;5001034;28;20180;-48
2023/06/15 04:56:40;;;;;;;5.82;4.13;;;;;;;12.76;100.00;101909.84;5001192;28;20194;-50
2023/06/15 04:59:07;;;;;;;5.70;4.35;;;;;;;12.81;100.00;101907.91;4985531;28;20327;-49
2023/06/15 05:01:33;;;;;;;6.32;4.05;;;;;;;12.88;100.00;101911.28;4999968;28;20267;-49
2023/06/15 05:04:00;;;;;;;5.95;4.22;;;;;;;12.92;100.00;101919.25;5006555;28;20648;-47
2023/06/15 05:06:26;;;;;;;6.47;4.85;;;;;;;12.87;100.00;101920.28;5005694;28;20177;-52
2023/06/15 05:08:52;;;;;;;5.13;4.63;;;;;;;12.96;100.00;101911.94;5000263;28;20217;-50
2023/06/15 05:11:17;;;;;;;5.05;4.50;;;;;;;13.06;100.00;101923.31;4998691;28;20237;-48
2023/06/15 05:13:44;;;;;;;5.45;4.65;;;;;;;13.10;100.00;101917.78;5002771;28;20243;-50
2023/06/15 05:16:10;;;;;;;4.53;4.10;;;;;;;13.16;100.00;101920.28;4993791;28;20196;-49
2023/06/15 05:18:38;;;;;;;7.65;4.25;;;;;;;12.80;100.00;101940.25;4996571;28;20197;-49
2023/06/15 05:21:04;;;;;;;8.32;4.60;;;;;;;12.95;100.00;101934.41;4999497;28;20648;-50
2023/06/15 05:23:34;;;;;;;6.05;4.75;;;;;;;13.15;100.00;101923.03;5003838;28;20538;-48
2023/06/15 05:25:59;;;;;;;5.70;5.10;;;;;;;13.09;100.00;101933.97;4995673;28;20188;-49
2023/06/15 05:28:25;;;;;;;8.00;4.85;;;;;;;13.10;100.00;101933.06;5003287;28;20208;-52
2023/06/15 05:30:51;;;;;;;7.15;5.53;;;;;;;13.26;100.00;101928.06;4995466;28;20260;-52
2023/06/15 05:33:17;;;;;;;7.07;5.05;;;;;;;13.43;100.00;101920.38;5001041;28;20185;-49
2023/06/15 05:35:43;;;;;;;9.95;5.95;;;;;;;13.54;100.00;101931.66;4997454;28;20314;-52
2023/06/15 05:38:10;;;;;;;7.07;4.90;;;;;;;13.49;100.00;101933.63;5004497;28;20205;-48
2023/06/15 05:40:38;;;;;;;5.32;4.70;;;;;;;13.63;100.00;101935.84;5004264;28;20204;-49
2023/06/15 05:43:04;;;;;;;8.25;4.93;;;;;;;13.66;100.00;101948.34;4998381;28;20181;-51
2023/06/15 05:45:30;;;;;;;6.68;5.10;;;;;;;13.68;100.00;101950.03;5002017;28;20195;-50
2023/06/15 05:47:58;;;;;;;7.72;5.22;;;;;;;13.72;100.00;101932.84;4997577;28;20213;-49
2023/06/15 05:50:24;;;;;;;7.07;4.90;;;;;;;13.76;100.00;101941.72;5005858;28;20220;-51
2023/06/15 05:52:49;;;;;;;5.38;4.88;;;;;;;13.83;100.00;101945.94;5010434;28;20230;-49
2023/06/15 05:55:15;;;;;;;6.93;4.85;;;;;;;13.71;100.00;101940.97;5001303;28;20196;-50
2023/06/15 05:57:41;;;;;;;6.15;4.75;;;;;;;13.87;100.00;101953.00;5002141;28;20234;-51
2023/06/15 06:00:07;;;;;;;5.22;4.50;;;;;;;13.93;100.00;101950.09;4999564;28;20200;-50
2023/06/15 06:02:42;;;;;;;9.13;5.18;;;;;;;14.03;100.00;101950.66;5008279;28;20651;-48
2023/06/15 06:05:14;;;;;;;6.45;3.97;;;;;;;14.14;100.00;101939.50;5004689;28;20245;-51
2023/06/15 06:07:40;;;;;;;5.88;4.57;;;;;;;14.13;100.00;101945.84;5010680;28;20299;-50
2023/06/15 06:10:06;;;;;;;6.28;4.22;;;;;;;14.32;100.00;101943.34;5004566;28;20189;-50
2023/06/15 06:12:32;;;;;;;5.05;4.43;;;;;;;14.45;100.00;101938.41;5000099;28;20510;-52
2023/06/15 06:14:58;;;;;;;5.10;4.00;;;;;;;14.71;100.00;101940.16;5006513;28;20199;-50
2023/06/15 06:17:24;;;;;;;8.32;4.68;;;;;;;14.76;100.00;101922.00;5001372;28;20193;-48
2023/06/15 06:19:51;;;;;;;6.85;3.97;;;;;;;14.93;100.00;101919.50;5009089;28;20287;-50
2023/06/15 06:22:17;;;;;;;5.25;4.32;;;;;;;15.00;100.00;101912.06;4992596;28;20280;-48
2023/06/15 06:24:43;;;;;;;7.30;4.20;;;;;;;15.00;100.00;101902.16;4994598;28;20244;-49
2023/06/15 06:27:08;;;;;;;7.75;3.90;;;;;;;15.09;100.00;101890.09;4975753;28;20503;-48
2023/06/15 06:29:34;;;;;;;6.43;4.30;;;;;;;15.08;100.00;101915.31;4991250;28;20212;-49
2023/06/15 06:32:00;;;;;;;8.73;4.00;;;;;;;15.07;100.00;101912.72;4976116;28;20648;-50
2023/06/15 06:34:25;;;;;;;5.72;4.10;;;;;;;15.12;100.00;101906.16;4992508;28;20193;-51
2023/06/15 06:36:51;;;;;;;4.35;3.58;;;;;;;15.22;100.00;101906.69;4992548;28;20201;-51
2023/06/15 06:39:16;;;;;;;6.28;3.78;;;;;;;15.40;100.00;101908.63;4992505;28;20620;-50
2023/06/15 06:41:42;;;;;;;9.20;4.07;;;;;;;15.30;100.00;101904.53;4992656;28;20204;-48
2023/06/15 06:45:04;;;;;;;3.70;3.20;;;;;;;15.35;100.00;101909.75;4992529;28;20579;-53
2023/06/15 06:47:30;;;;;;;4.35;3.22;;;;;;;15.44;100.00;101909.41;5008913;28;20204;-50
2023/06/15 06:49:59;;;;;;;5.70;3.15;;;;;;;15.48;100.00;101907.41;5013303;28;20546;-50
2023/06/15 06:52:25;;;;;;;5.43;3.25;;;;;;;15.50;100.00;101909.09;5013216;28;20234;-49
2023/06/15 06:54:51;;;;;;;6.38;3.28;;;;;;;15.50;100.00;101903.72;5011352;28;20169;-48
2023/06/15 06:57:16;;;;;;;4.63;3.28;;;;;;;15.61;100.00;101900.56;5012633;28;20211;-48
2023/06/15 06:59:42;;;;;;;3.58;2.92;;;;;;;15.64;100.00;101889.66;5011544;28;20608;-52
2023/06/15 07:02:08;;;;;;;4.35;3.40;;;;;;;15.76;100.00;101886.44;5010657;28;20169;-50
2023/06/15 07:04:33;;;;;;;7.15;3.38;;;;;;;15.83;100.00;101877.13;5011645;28;20192;-47
2023/06/15 07:06:59;;;;;;;7.25;3.78;;;;;;;15.84;100.00;101870.78;5012607;28;20223;-49
2023/06/15 07:09:24;;;;;;;7.13;4.05;;;;;;;15.80;100.00;101884.50;5011278;28;20193;-50
2023/06/15 07:11:50;;;;;;;6.95;4.38;;;;;;;15.73;100.00;101900.09;5030769;22;20208;-46
2023/06/15 07:14:15;;;;;;;10.57;3.88;;;;;;;15.88;100.00;101901.25;5011547;28;20161;-49
2023/06/15 07:16:41;;;;;;;6.63;3.88;;;;;;;16.04;100.00;101899.63;5012545;28;20546;-50
2023/06/15 07:19:06;;;;;;;6.45;3.58;;;;;;;16.22;100.00;101905.16;5012606;28;20169;-51
2023/06/15 07:24:14;;;;;;;8.27;3.53;;;;;;;16.46;100.00;101914.00;5928358;22;20673;-46
2023/06/15 07:26:40;;;;;;;5.15;3.90;;;;;;;16.43;100.00;101901.50;5026182;28;20580;-47
2023/06/15 07:31:50;;;;;;;6.13;3.47;;;;;;;16.75;93.23;101885.59;5037704;28;20600;-47
2023/06/15 07:34:16;;;;;;;8.70;4.53;;;;;;;16.97;91.16;101880.06;5026330;28;20616;-52
2023/06/15 07:40:22;;;;;;;11.95;3.55;;;;;;;17.11;88.46;101875.81;5056624;28;20616;-53
2023/06/15 07:42:47;;;;;;;7.20;3.70;;;;;;;17.22;89.18;101882.44;5060233;28;20183;-54
2023/06/15 07:45:13;;;;;;;7.57;3.50;;;;;;;17.69;87.12;101884.63;5058200;28;20621;-52
2023/06/15 07:47:41;;;;;;;5.10;3.50;;;;;;;18.33;85.06;101876.78;5060489;28;20285;-52
2023/06/15 07:50:07;;;;;;;7.40;3.42;;;;;;;18.16;81.98;101857.81;5045712;28;20241;-53
2023/06/15 07:52:32;;;;;;;4.45;3.40;;;;;;;18.47;79.63;101863.31;5058768;28;20219;-52
2023/06/15 07:54:58;;;;;;;4.32;3.70;;;;;;;19.22;78.55;101849.19;5053729;28;20210;-49
2023/06/15 07:57:23;;;;;;;4.10;3.25;;;;;;;19.59;76.81;101849.75;5063800;28;20493;-48
2023/06/15 07:59:49;;;;;;;5.38;3.25;;;;;;;19.19;76.66;101841.25;5060856;28;20228;-49
2023/06/15 08:02:15;;;;;;;7.93;3.40;;;;;;;19.03;75.34;101836.69;5060957;28;20179;-49
2023/06/15 08:04:40;;;;;;;4.40;2.92;;;;;;;19.10;75.49;101835.38;5059438;28;20177;-48
2023/06/15 08:07:07;;;;;;;8.55;3.33;;;;;;;18.75;74.98;101834.66;5059504;28;20237;-48
2023/06/15 08:09:32;;;;;;;5.18;3.03;;;;;;;18.74;76.58;101843.78;5060123;28;20221;-48
2023/06/15 08:11:58;;;;;;;6.05;3.25;;;;;;;18.73;76.56;101844.72;5039450;28;20182;-49
2023/06/15 08:14:23;;;;;;;6.28;3.33;;;;;;;18.92;75.82;101839.16;5062829;28;20772;-48
2023/06/15 08:16:49;;;;;;;6.10;3.15;;;;;;;18.67;75.36;101824.25;5053476;23;20218;-51
2023/06/15 08:19:14;;;;;;;5.35;2.95;;;;;;;18.88;74.84;101819.44;5061770;28;20313;-53
2023/06/15 08:21:43;;;;;;;3.78;2.92;;;;;;;18.94;72.31;101818.22;5046589;28;20274;-51
2023/06/15 08:24:15;;;;;;;5.03;3.13;;;;;;;19.01;72.28;101807.88;5045344;28;20634;-55
2023/06/15 08:26:42;;;;;;;5.75;2.88;;;;;;;18.84;69.51;101792.56;5031724;28;20183;-51
2023/06/15 08:29:08;;;;;;;3.85;2.67;;;;;;;19.08;69.03;101784.81;5044258;28;20273;-52
2023/06/15 08:31:35;;;;;;;4.63;2.70;;;;;;;19.13;67.94;101785.41;5063795;28;20259;-52
2023/06/15 08:34:00;;;;;;;3.75;2.60;;;;;;;19.07;68.60;101788.50;5060963;28;20282;-51
2023/06/15 08:36:26;;;;;;;12.27;2.97;;;;;;;19.02;65.85;101785.16;5044743;28;20253;-51
2023/06/15 08:38:51;;;;;;;4.00;2.70;;;;;;;19.20;65.92;101775.94;5059542;28;20216;-53
2023/06/15 08:43:46;;;;;;;3.40;2.70;;;;;;;19.44;66.45;101786.28;5016383;28;20226;-51
2023/06/15 08:46:12;;;;;;;6.53;2.67;;;;;;;19.19;64.58;101776.91;5020648;28;20191;-55
2023/06/15 08:48:39;;;;;;;7.82;2.70;;;;;;;19.30;64.53;101784.41;5023206;28;20571;-53
2023/06/15 08:51:07;;;;;;;7.68;2.58;;;;;;;19.35;63.21;101772.31;5018096;28;20554;-54
2023/06/15 08:53:34;;;;;;;4.72;2.80;;;;;;;19.63;61.48;101764.31;5038481;28;20234;-53
2023/06/15 08:56:01;;;;;;;4.68;2.83;;;;;;;19.98;60.97;101764.88;5033447;28;20187;-53
2023/06/15 08:58:26;;;;;;;6.85;2.92;;;;;;;19.89;60.48;101762.72;5036333;28;20278;-54
2023/06/15 09:00:54;;;;;;;4.63;3.03;;;;;;;20.07;60.27;101758.88;5032486;28;20724;-54
2023/06/15 09:03:21;;;;;;;7.72;2.30;;;;;;;19.93;58.26;101746.13;5036406;28;20661;-53
2023/06/15 09:05:47;;;;;;;5.97;2.35;;;;;;;20.05;58.68;101749.94;5044726;28;20179;-52
2023/06/15 09:08:13;;;;;;;4.57;2.65;;;;;;;19.80;58.21;101750.59;5034204;28;20208;-53
2023/06/15 09:10:41;;;;;;;5.78;2.75;;;;;;;19.79;59.75;101769.69;5034657;28;20203;-54
2023/06/15 09:13:16;;;;;;;4.38;3.00;;;;;;;19.49;60.06;101776.91;5036807;28;20241;-53
2023/06/15 09:15:43;;;;;;;6.55;2.70;;;;;;;19.72;59.18;101771.94;5018187;28;20640;-53
2023/06/15 09:18:10;;;;;;;3.20;2.90;;;;;;;19.44;59.11;101761.84;5032654;28;20233;-52
2023/06/15 09:20:39;;;;;;;4.97;2.90;;;;;;;19.38;59.88;101784.84;5032794;28;20194;-50
2023/06/15 09:23:10;;;;;;;6.93;2.92;;;;;;;19.17;60.89;101778.84;5025114;28;20269;-50
2023/06/15 09:25:36;;;;;;;6.90;3.00;;;;;;;19.02;62.81;101812.34;5035043;28;20304;-51
2023/06/15 09:28:08;;;;;;;5.82;2.92;;;;;;;18.98;62.95;101814.38;5037013;28;20203;-50
2023/06/15 09:30:35;;;;;;;4.22;2.72;;;;;;;18.88;64.13;101816.72;5021178;28;20293;-51
2023/06/15 09:33:10;;;;;;;4.25;2.90;;;;;;;18.58;62.90;101808.44;5039109;28;20182;-51
2023/06/15 09:35:36;;;;;;;2.90;2.60;;;;;;;18.47;63.02;101819.03;5036565;28;20186;-51
2023/06/15 09:38:02;;;;;;;3.70;2.55;;;;;;;18.43;63.73;101823.78;5046959;28;20164;-52
2023/06/15 09:40:30;;;;;;;7.10;3.20;;;;;;;18.11;65.97;101858.94;5038749;28;20296;-51
2023/06/15 09:42:58;;;;;;;4.60;3.05;;;;;;;17.84;67.31;101854.97;5037704;28;20274;-51
2023/06/15 09:45:24;;;;;;;5.40;2.88;;;;;;;17.43;68.53;101868.81;5042679;28;20645;-52
2023/06/15 09:47:55;;;;;;;6.93;3.38;;;;;;;17.08;70.09;101860.59;5037409;28;20210;-51
2023/06/15 09:50:26;;;;;;;3.38;3.03;;;;;;;17.00;72.19;101868.22;5040258;28;20307;-53
2023/06/15 09:52:52;;;;;;;3.55;3.03;;;;;;;17.16;73.75;101874.63;5025504;28;20172;-52
2023/06/15 09:55:18;;;;;;;5.40;2.88;;;;;;;17.37;73.33;101861.84;5037416;28;20187;-55
2023/06/15 09:57:46;;;;;;;6.10;3.17;;;;;;;17.57;74.33;101862.69;5055721;28;20205;-52
2023/06/15 10:00:12;;;;;;;4.78;3.08;;;;;;;17.76;74.88;101855.34;5052594;28;20229;-53
2023/06/15 10:02:39;;;;;;;5.45;3.30;;;;;;;17.86;74.60;101848.53;5058703;28;20177;-50
2023/06/15 10:05:13;;;;;;;3.95;3.08;;;;;;;18.11;75.25;101855.38;5051051;28;20591;-52
2023/06/15 10:07:49;;;;;;;3.25;2.92;;;;;;;18.21;74.41;101850.31;5051008;28;20228;-51
2023/06/15 10:10:18;;;;;;;3.50;2.55;;;;;;;18.44;73.98;101839.06;5054426;28;20260;-51
2023/06/15 10:12:49;;;;;;;4.07;3.00;;;;;;;18.86;72.40;101834.94;5060241;28;20568;-50
2023/06/15 10:15:18;;;;;;;5.65;3.28;;;;;;;19.54;69.57;101815.53;5050365;28;20175;-50
2023/06/15 10:17:48;;;;;;;4.53;2.78;;;;;;;20.09;67.42;101805.88;5055606;28;20240;-51
2023/06/15 10:20:16;;;;;;;4.57;2.95;;;;;;;20.01;65.40;101783.72;5055685;28;20287;-51
2023/06/15 10:23:13;;;;;;;5.68;2.78;;;;;;;20.02;64.33;101777.31;5044089;28;20244;-54
2023/06/15 10:25:42;;;;;;;4.70;2.90;;;;;;;20.22;62.91;101770.59;5064724;28;20278;-50
2023/06/15 10:28:11;;;;;;;4.30;3.10;;;;;;;20.28;63.18;101770.22;5053610;28;20273;-50
2023/06/15 10:30:53;;;;;;;5.72;3.17;;;;;;;20.05;62.30;101766.25;5056749;28;20202;-53
2023/06/15 10:33:31;;;;;;;6.57;2.97;;;;;;;20.06;62.83;101776.16;5061376;28;20229;-53
2023/06/15 10:35:59;;;;;;;6.35;2.90;;;;;;;20.61;60.72;101751.81;5059248;28;20186;-51
2023/06/15 10:39:01;;;;;;;3.42;3.00;;;;;;;19.90;61.46;101759.94;5047689;28;20167;-52
2023/06/15 10:41:27;;;;;;;5.50;2.80;;;;;;;19.92;61.96;101765.28;5061569;28;20178;-49
2023/06/15 10:43:58;;;;;;;4.80;3.00;;;;;;;19.80;58.89;101736.97;5064914;28;20240;-49
2023/06/15 10:46:31;;;;;;;7.18;2.85;;;;;;;20.16;58.36;101736.50;5062694;28;20189;-51
2023/06/15 10:49:08;;;;;;;4.57;3.05;;;;;;;20.37;57.20;101720.63;5062814;28;20309;-50
2023/06/15 10:51:37;;;;;;;5.25;3.42;;;;;;;20.37;56.69;101712.44;5064763;28;20244;-53
2023/06/15 10:54:04;;;;;;;3.97;3.22;;;;;;;20.47;55.21;101712.75;5070348;28;20637;-51
2023/06/15 10:56:30;;;;;;;5.75;3.10;;;;;;;20.55;54.65;101704.03;5053931;28;20187;-53
2023/06/15 10:58:57;;;;;;;6.28;3.13;;;;;;;20.72;55.02;101708.41;5063083;28;20248;-53
2023/06/15 11:01:24;;;;;;;4.57;3.10;;;;;;;20.74;56.20;101714.63;5065337;28;20193;-51
2023/06/15 11:03:50;;;;;;;4.03;3.00;;;;;;;20.64;55.69;101717.09;5062505;28;20231;-54
2023/06/15 11:06:17;;;;;;;5.97;3.28;;;;;;;20.54;55.28;101710.47;5068413;28;20273;-54
2023/06/15 11:08:49;;;;;;;3.83;3.35;;;;;;;20.88;55.98;101725.47;5058330;28;20215;-49
2023/06/15 11:11:38;;;;;;;3.53;3.10;;;;;;;20.94;56.42;101719.59;5063242;28;20205;-52
2023/06/15 11:14:19;;;;;;;4.38;2.97;;;;;;;20.60;56.64;101722.81;5057181;28;20176;-50
2023/06/15 11:17:00;;;;;;;3.45;3.08;;;;;;;21.04;56.81;101732.63;5044453;28;20661;-51
2023/06/15 11:19:26;;;;;;;5.20;2.80;;;;;;;20.87;55.91;101721.00;5060816;28;20190;-51
2023/06/15 11:22:01;;;;;;;3.65;3.22;;;;;;;21.10;55.66;101729.44;5053195;28;20679;-51
2023/06/15 11:24:33;;;;;;;4.40;3.17;;;;;;;21.19;55.94;101731.56;5056778;28;20583;-51
2023/06/15 11:27:04;;;;;;;3.35;3.05;;;;;;;21.32;55.35;101717.97;5059483;28;20178;-50
2023/06/15 11:29:33;;;;;;;4.95;3.13;;;;;;;21.04;55.10;101711.69;5056083;28;20213;-51
2023/06/15 11:32:04;;;;;;;4.35;3.20;;;;;;;20.80;55.76;101716.06;5056300;28;20299;-50
2023/06/15 11:34:30;;;;;;;4.88;3.15;;;;;;;21.11;55.67;101723.91;5059476;28;20186;-50
2023/06/15 11:36:57;;;;;;;3.53;3.08;;;;;;;21.29;54.88;101707.25;5056101;28;20181;-50
2023/06/15 11:39:24;;;;;;;3.72;3.28;;;;;;;21.25;55.26;101706.59;5054999;28;20673;-51